Time;durP1;ratioP1;P1;durP2;ratioP2;P2;SDS_P1;SDS_P2;PMS_P1;PMS_P2;Temp;Humidity;BMP_temperature;BMP_pressure;BME280_temperature;BME280_humidity;BME280_pressure;Samples;Min_cycle;Max_cycle;Signal;HPM_P1;HPM_P2
2022/08/19 00:02:24;;;;;;;;;24.20;22.60;;;;;;;;5175562;28;8767;-74
2022/08/19 00:04:55;;;;;;;;;44.00;38.00;;;;;;;;5191604;28;8835;-74
2022/08/19 00:07:26;;;;;;;;;50.80;40.80;;;;;;;;5191351;28;11536;-74
2022/08/19 00:09:58;;;;;;;;;57.80;44.00;;;;;;;;5192108;28;9580;-73
2022/08/19 00:12:29;;;;;;;;;30.50;26.75;;;;;;;;5191535;28;8795;-74
2022/08/19 00:15:00;;;;;;;;;33.75;30.25;;;;;;;;5191521;28;8767;-74
2022/08/19 00:17:31;;;;;;;;;49.00;39.20;;;;;;;;5225481;28;9914;-74
2022/08/19 00:20:02;;;;;;;;;60.00;47.20;;;;;;;;5198028;28;8801;-73
2022/08/19 00:22:34;;;;;;;;;58.40;45.80;;;;;;;;5155081;28;8821;-73
2022/08/19 00:25:05;;;;;;;;;47.25;40.00;;;;;;;;5204526;28;8813;-73
2022/08/19 00:27:36;;;;;;;;;36.80;29.60;;;;;;;;5204634;28;10928;-75
2022/08/19 00:30:09;;;;;;;;;16.20;16.00;;;;;;;;5171204;28;8808;-74
2022/08/19 00:32:40;;;;;;;;;6.50;6.00;;;;;;;;5187288;28;8774;-75
2022/08/19 00:35:11;;;;;;;;;11.00;10.40;;;;;;;;5186974;28;8793;-75
2022/08/19 00:37:43;;;;;;;;;6.40;5.00;;;;;;;;5188033;28;8836;-77
2022/08/19 00:40:14;;;;;;;;;6.40;6.20;;;;;;;;5187259;28;8841;-76
2022/08/19 00:43:10;;;;;;;;;5.00;5.00;;;;;;;;5205632;28;8805;-77
2022/08/19 00:46:04;;;;;;;;;1.00;0.00;;;;;;;;5190639;28;8797;-76
2022/08/19 00:48:36;;;;;;;;;6.25;5.75;;;;;;;;5195010;28;8845;-77
2022/08/19 00:51:08;;;;;;;;;6.00;5.00;;;;;;;;5195156;28;8774;-75
2022/08/19 00:53:39;;;;;;;;;4.60;4.60;;;;;;;;5211701;28;8841;-76
2022/08/19 00:56:10;;;;;;;;;2.75;2.75;;;;;;;;5194925;28;8813;-76
2022/08/19 00:58:41;;;;;;;;;6.00;4.80;;;;;;;;5183588;28;8797;-75
2022/08/19 01:01:13;;;;;;;;;4.00;4.00;;;;;;;;5174521;28;8793;-75
2022/08/19 01:04:03;;;;;;;;;6.00;4.00;;;;;;;;5204784;28;8789;-75
2022/08/19 01:06:37;;;;;;;;;2.20;2.20;;;;;;;;5207158;28;8774;-74
2022/08/19 01:09:08;;;;;;;;;5.00;3.80;;;;;;;;5191116;28;8770;-75
2022/08/19 01:11:58;;;;;;;;;3.50;3.00;;;;;;;;5208797;28;9491;-75
2022/08/19 01:14:29;;;;;;;;;4.60;4.20;;;;;;;;5192981;28;8837;-75
2022/08/19 01:17:19;;;;;;;;;2.80;2.80;;;;;;;;5213933;28;8767;-75
2022/08/19 01:19:50;;;;;;;;;4.00;3.20;;;;;;;;5193226;28;8793;-75
2022/08/19 01:22:21;;;;;;;;;11.00;10.40;;;;;;;;5210859;28;8811;-75
2022/08/19 01:24:52;;;;;;;;;12.40;12.20;;;;;;;;5210982;28;8807;-75
2022/08/19 01:27:23;;;;;;;;;28.00;27.60;;;;;;;;5211005;28;8797;-75
2022/08/19 01:29:54;;;;;;;;;20.40;19.20;;;;;;;;5210701;28;8779;-75
2022/08/19 01:32:25;;;;;;;;;17.75;16.25;;;;;;;;5229312;28;8779;-75
2022/08/19 01:34:56;;;;;;;;;11.00;8.80;;;;;;;;5221923;28;9268;-75
2022/08/19 01:37:27;;;;;;;;;7.25;7.00;;;;;;;;5190582;28;8761;-75
2022/08/19 01:40:00;;;;;;;;;5.80;5.00;;;;;;;;5191048;28;9609;-75
2022/08/19 01:42:31;;;;;;;;;7.20;6.20;;;;;;;;5210766;28;8840;-75
2022/08/19 01:45:22;;;;;;;;;6.00;6.00;;;;;;;;5196892;28;8830;-75
2022/08/19 01:47:53;;;;;;;;;5.40;5.40;;;;;;;;5228488;28;9557;-75
2022/08/19 01:50:43;;;;;;;;;5.00;4.60;;;;;;;;5196517;28;8874;-75
2022/08/19 01:53:14;;;;;;;;;3.80;3.80;;;;;;;;5209346;28;8794;-79
2022/08/19 01:55:45;;;;;;;;;4.80;4.80;;;;;;;;5227997;28;8812;-79
2022/08/19 01:58:22;;;;;;;;;5.00;5.00;;;;;;;;5180841;28;9527;-79
2022/08/19 02:00:53;;;;;;;;;5.80;4.80;;;;;;;;5190065;28;8809;-77
2022/08/19 02:03:24;;;;;;;;;4.80;4.80;;;;;;;;5207524;28;8804;-78
2022/08/19 02:05:59;;;;;;;;;4.00;4.00;;;;;;;;5205954;28;8816;-78
2022/08/19 02:08:32;;;;;;;;;7.60;6.20;;;;;;;;5189922;28;8781;-78
2022/08/19 02:11:04;;;;;;;;;2.00;2.00;;;;;;;;5173254;28;8797;-77
2022/08/19 02:13:36;;;;;;;;;4.25;4.25;;;;;;;;5207268;28;8824;-77
2022/08/19 02:16:07;;;;;;;;;3.75;3.00;;;;;;;;5201838;28;8814;-77
2022/08/19 02:18:38;;;;;;;;;7.40;7.00;;;;;;;;5193709;28;8778;-77
2022/08/19 02:21:10;;;;;;;;;5.00;4.60;;;;;;;;5198513;28;8777;-77
2022/08/19 02:23:42;;;;;;;;;7.75;6.50;;;;;;;;5173493;28;8797;-78
2022/08/19 02:26:14;;;;;;;;;7.00;6.80;;;;;;;;5222589;28;8796;-76
2022/08/19 02:28:45;;;;;;;;;7.20;6.60;;;;;;;;5173286;28;8861;-79
2022/08/19 02:31:17;;;;;;;;;10.80;10.00;;;;;;;;5173041;28;8777;-78
2022/08/19 02:34:06;;;;;;;;;8.40;8.40;;;;;;;;5191778;28;8799;-78
2022/08/19 02:36:37;;;;;;;;;5.25;4.75;;;;;;;;5189010;28;8799;-78
2022/08/19 02:39:09;;;;;;;;;6.00;5.60;;;;;;;;5209670;28;8887;-79
2022/08/19 02:41:41;;;;;;;;;5.25;4.75;;;;;;;;5194183;28;8813;-79
2022/08/19 02:44:12;;;;;;;;;5.00;5.00;;;;;;;;5205430;28;8796;-78
2022/08/19 02:47:02;;;;;;;;;4.50;4.50;;;;;;;;5206999;28;8777;-78
2022/08/19 02:49:33;;;;;;;;;8.40;7.80;;;;;;;;5172658;28;8882;-77
2022/08/19 02:52:23;;;;;;;;;5.80;5.80;;;;;;;;5192003;28;8789;-77
2022/08/19 02:54:57;;;;;;;;;6.80;6.80;;;;;;;;5172338;28;8781;-79
2022/08/19 02:57:31;;;;;;;;;5.00;5.00;;;;;;;;5188690;28;8785;-79
2022/08/19 03:00:05;;;;;;;;;4.00;3.00;;;;;;;;5172936;28;9538;-80
2022/08/19 03:02:36;;;;;;;;;4.50;4.25;;;;;;;;5156111;28;8793;-80
2022/08/19 03:05:09;;;;;;;;;4.00;4.00;;;;;;;;5188271;28;8812;-78
2022/08/19 03:07:40;;;;;;;;;3.00;3.00;;;;;;;;5171888;28;9581;-78
2022/08/19 03:10:11;;;;;;;;;4.75;4.00;;;;;;;;5188793;28;8785;-79
2022/08/19 03:12:42;;;;;;;;;5.00;5.00;;;;;;;;5189683;28;8788;-78
2022/08/19 03:15:13;;;;;;;;;14.40;14.00;;;;;;;;5192537;28;8933;-79
2022/08/19 03:17:44;;;;;;;;;7.75;7.00;;;;;;;;5205656;28;8936;-79
2022/08/19 03:20:15;;;;;;;;;4.50;4.50;;;;;;;;5191879;28;8906;-79
2022/08/19 03:22:46;;;;;;;;;5.25;4.00;;;;;;;;5206096;28;8800;-78
2022/08/19 03:25:41;;;;;;;;;6.00;5.25;;;;;;;;5212474;28;8788;-80
2022/08/19 03:28:14;;;;;;;;;2.75;2.75;;;;;;;;5198469;28;8851;-80
2022/08/19 03:30:56;;;;;;;;;5.25;4.50;;;;;;;;5214917;28;8796;-77
2022/08/19 03:33:28;;;;;;;;;5.00;4.75;;;;;;;;5188333;28;8784;-77
2022/08/19 03:36:00;;;;;;;;;7.00;6.00;;;;;;;;5187852;28;8796;-78
2022/08/19 03:38:32;;;;;;;;;4.75;4.50;;;;;;;;5204308;28;8769;-78
2022/08/19 03:41:23;;;;;;;;;7.25;6.50;;;;;;;;5191829;28;8827;-77
2022/08/19 03:43:55;;;;;;;;;5.75;5.50;;;;;;;;5184223;28;9550;-78
2022/08/19 03:46:45;;;;;;;;;9.50;7.50;;;;;;;;5184300;28;8794;-76
2022/08/19 03:49:17;;;;;;;;;7.75;7.25;;;;;;;;5183556;28;8803;-74
2022/08/19 03:51:49;;;;;;;;;6.00;6.00;;;;;;;;5183820;28;9634;-75
2022/08/19 03:54:22;;;;;;;;;11.00;10.75;;;;;;;;5183696;28;8815;-75
2022/08/19 03:56:54;;;;;;;;;8.50;7.00;;;;;;;;5184536;28;8811;-75
2022/08/19 03:59:27;;;;;;;;;133.75;110.75;;;;;;;;5188002;28;8834;-75
2022/08/19 04:02:00;;;;;;;;;27.60;27.20;;;;;;;;5167037;28;8823;-75
2022/08/19 04:04:31;;;;;;;;;19.80;19.40;;;;;;;;5183320;28;8833;-79
2022/08/19 04:07:02;;;;;;;;;21.80;21.60;;;;;;;;5183253;28;8805;-79
2022/08/19 04:09:34;;;;;;;;;28.20;25.80;;;;;;;;5183272;28;8827;-79
2022/08/19 04:12:06;;;;;;;;;27.00;26.60;;;;;;;;5166736;28;8802;-75
2022/08/19 04:14:37;;;;;;;;;29.00;26.60;;;;;;;;5183581;28;8823;-78
2022/08/19 04:17:08;;;;;;;;;21.00;20.00;;;;;;;;5176639;28;8823;-78
2022/08/19 04:19:39;;;;;;;;;24.80;23.80;;;;;;;;5183785;28;8791;-76
2022/08/19 04:22:11;;;;;;;;;11.40;9.60;;;;;;;;5183345;28;8945;-73
2022/08/19 04:24:42;;;;;;;;;7.00;7.00;;;;;;;;5197375;28;8824;-75
2022/08/19 04:27:34;;;;;;;;;48.80;36.00;;;;;;;;5203745;28;8780;-77
2022/08/19 04:30:05;;;;;;;;;20.80;17.40;;;;;;;;5186741;28;8804;-79
2022/08/19 04:32:36;;;;;;;;;17.25;16.50;;;;;;;;5187013;28;8784;-77
2022/08/19 04:35:07;;;;;;;;;17.40;17.20;;;;;;;;5203886;28;8936;-76
2022/08/19 04:37:39;;;;;;;;;17.80;16.60;;;;;;;;5200326;28;8938;-76
2022/08/19 04:43:18;;;;;;;;;14.75;13.50;;;;;;;;5201516;28;8866;-75
2022/08/19 04:45:51;;;;;;;;;14.50;13.50;;;;;;;;5201932;28;8796;-78
2022/08/19 04:48:40;;;;;;;;;14.25;12.50;;;;;;;;5201550;28;8819;-77
2022/08/19 04:51:13;;;;;;;;;13.25;12.25;;;;;;;;5185523;28;8796;-78
2022/08/19 04:53:44;;;;;;;;;16.50;16.00;;;;;;;;5179674;28;8823;-77
2022/08/19 04:56:17;;;;;;;;;18.00;17.20;;;;;;;;5181315;28;8815;-79
2022/08/19 04:58:50;;;;;;;;;29.20;27.80;;;;;;;;5168840;28;8811;-80
2022/08/19 05:01:23;;;;;;;;;27.40;27.40;;;;;;;;5200894;28;8866;-78
2022/08/19 05:03:56;;;;;;;;;15.50;14.75;;;;;;;;5176867;28;8835;-78
2022/08/19 05:06:28;;;;;;;;;15.50;15.25;;;;;;;;5164638;28;8833;-77
2022/08/19 05:09:00;;;;;;;;;13.25;12.50;;;;;;;;5164970;28;8813;-77
2022/08/19 05:11:33;;;;;;;;;11.00;10.00;;;;;;;;5198143;28;8789;-76
2022/08/19 05:14:04;;;;;;;;;10.00;9.50;;;;;;;;5202405;28;8894;-77
2022/08/19 05:16:35;;;;;;;;;6.00;6.00;;;;;;;;5185251;28;8938;-77
2022/08/19 05:24:46;;;;;;;;;12.75;9.50;;;;;;;;5208240;28;8817;-76
2022/08/19 05:27:17;;;;;;;;;9.50;8.00;;;;;;;;5169150;28;9588;-78
2022/08/19 05:29:48;;;;;;;;;7.00;6.00;;;;;;;;5203522;28;8813;-79
2022/08/19 05:32:19;;;;;;;;;8.75;8.00;;;;;;;;5188635;28;8788;-78
2022/08/19 05:34:50;;;;;;;;;7.25;6.75;;;;;;;;5188406;28;9534;-77
2022/08/19 05:37:22;;;;;;;;;10.50;9.25;;;;;;;;5188273;28;9572;-80
2022/08/19 05:39:54;;;;;;;;;12.50;8.50;;;;;;;;5204386;28;8800;-76
2022/08/19 05:42:26;;;;;;;;;11.25;10.50;;;;;;;;5204813;28;8784;-75
2022/08/19 05:44:57;;;;;;;;;12.25;9.25;;;;;;;;5199822;28;8846;-76
2022/08/19 05:47:29;;;;;;;;;12.50;10.75;;;;;;;;5186239;28;9012;-75
2022/08/19 05:50:01;;;;;;;;;12.75;10.00;;;;;;;;5202680;28;9536;-81
2022/08/19 05:52:37;;;;;;;;;9.25;8.50;;;;;;;;5173311;28;9602;-79
2022/08/19 05:55:09;;;;;;;;;8.50;7.25;;;;;;;;5189412;28;8929;-78
2022/08/19 05:57:41;;;;;;;;;11.50;8.50;;;;;;;;5168364;28;8807;-75
2022/08/19 06:00:13;;;;;;;;;10.50;8.25;;;;;;;;5187147;28;8856;-77
2022/08/19 06:02:44;;;;;;;;;118.00;99.20;;;;;;;;5194376;28;8847;-76
2022/08/19 06:05:15;;;;;;;;;20.00;17.50;;;;;;;;5179701;28;9574;-78
2022/08/19 06:07:46;;;;;;;;;14.25;12.50;;;;;;;;5190017;28;8804;-78
2022/08/19 06:10:17;;;;;;;;;13.25;11.00;;;;;;;;5173729;28;8796;-78
2022/08/19 06:13:07;;;;;;;;;8.75;8.50;;;;;;;;5192324;28;8838;-77
2022/08/19 06:15:56;;;;;;;;;9.75;8.25;;;;;;;;5185559;28;8853;-79
2022/08/19 06:18:27;;;;;;;;;7.25;6.00;;;;;;;;5183884;28;8801;-75
2022/08/19 06:20:59;;;;;;;;;8.75;7.00;;;;;;;;5189453;28;8862;-77
2022/08/19 06:23:30;;;;;;;;;7.50;7.50;;;;;;;;5185801;28;8875;-78
2022/08/19 06:26:01;;;;;;;;;9.00;8.25;;;;;;;;5168960;28;8775;-77
2022/08/19 06:28:33;;;;;;;;;73.00;57.80;;;;;;;;5168952;28;8814;-77
2022/08/19 06:31:07;;;;;;;;;15.50;14.00;;;;;;;;5168879;28;8901;-77
2022/08/19 06:33:39;;;;;;;;;12.00;11.50;;;;;;;;5168983;28;8791;-77
2022/08/19 06:36:20;;;;;;;;;5.00;4.75;;;;;;;;5168828;28;8950;-78
2022/08/19 06:38:52;;;;;;;;;9.00;9.00;;;;;;;;5169168;28;8791;-77
2022/08/19 06:41:24;;;;;;;;;10.25;8.50;;;;;;;;5183712;28;8827;-76
2022/08/19 06:43:56;;;;;;;;;6.00;6.00;;;;;;;;5168555;28;8897;-77
2022/08/19 06:46:27;;;;;;;;;5.75;5.50;;;;;;;;5168704;28;8910;-76
2022/08/19 06:48:58;;;;;;;;;7.33;7.00;;;;;;;;5169319;28;8789;-75
2022/08/19 06:51:32;;;;;;;;;7.25;6.75;;;;;;;;5162534;28;8793;-75
2022/08/19 06:54:03;;;;;;;;;7.00;7.00;;;;;;;;5205292;28;8870;-75
2022/08/19 06:56:34;;;;;;;;;4.50;4.00;;;;;;;;5188875;28;8808;-76
2022/08/19 06:59:06;;;;;;;;;4.50;4.50;;;;;;;;5204822;28;8780;-76
2022/08/19 07:01:41;;;;;;;;;11.50;10.25;;;;;;;;5172236;28;8791;-75
2022/08/19 07:04:15;;;;;;;;;7.00;7.00;;;;;;;;5188496;28;8939;-76
2022/08/19 07:06:46;;;;;;;;;6.50;4.75;;;;;;;;5206171;28;8797;-77
2022/08/19 07:09:18;;;;;;;;;6.00;6.00;;;;;;;;5172314;28;8858;-75
2022/08/19 07:11:52;;;;;;;;;8.25;6.75;;;;;;;;5172720;28;8791;-76
2022/08/19 07:14:24;;;;;;;;;21.25;21.25;;;;;;;;5168723;28;8822;-75
2022/08/19 07:16:57;;;;;;;;;20.50;20.50;;;;;;;;5165992;28;8817;-75
2022/08/19 07:19:29;;;;;;;;;5.75;5.75;;;;;;;;5164065;28;9587;-75
2022/08/19 07:22:02;;;;;;;;;5.00;5.00;;;;;;;;5136134;28;8864;-76
2022/08/19 07:24:52;;;;;;;;;5.75;5.75;;;;;;;;5155739;28;8833;-77
2022/08/19 07:27:23;;;;;;;;;3.25;3.25;;;;;;;;5163920;28;8789;-76
2022/08/19 07:30:13;;;;;;;;;4.00;4.00;;;;;;;;5153732;28;8818;-75
2022/08/19 07:32:44;;;;;;;;;6.25;5.75;;;;;;;;5171243;28;8818;-75
2022/08/19 07:35:18;;;;;;;;;0.25;0.25;;;;;;;;5179113;28;8840;-75
2022/08/19 07:37:49;;;;;;;;;4.50;4.50;;;;;;;;5163409;28;8892;-75
2022/08/19 07:40:20;;;;;;;;;3.75;3.75;;;;;;;;5131327;28;8864;-75
2022/08/19 07:43:10;;;;;;;;;4.25;4.25;;;;;;;;5182701;28;8798;-75
2022/08/19 07:46:00;;;;;;;;;2.75;2.75;;;;;;;;5179908;28;8763;-75
2022/08/19 07:48:32;;;;;;;;;3.50;3.50;;;;;;;;5200681;28;8798;-77
2022/08/19 07:51:05;;;;;;;;;2.50;2.50;;;;;;;;5191689;28;8807;-76
2022/08/19 07:53:36;;;;;;;;;0.00;0.00;;;;;;;;5177941;28;8928;-77
2022/08/19 07:56:26;;;;;;;;;2.75;2.75;;;;;;;;5149882;28;8801;-76
2022/08/19 07:59:17;;;;;;;;;0.25;0.25;;;;;;;;5163415;28;9615;-76
2022/08/19 08:01:49;;;;;;;;;3.25;3.25;;;;;;;;5163344;28;8818;-76
2022/08/19 08:10:05;;;;;;;;;2.00;2.00;;;;;;;;5128640;28;8829;-75
2022/08/19 08:12:55;;;;;;;;;2.75;2.75;;;;;;;;5174484;28;8803;-75
2022/08/19 08:15:26;;;;;;;;;3.00;3.00;;;;;;;;5183202;28;8795;-76
2022/08/19 08:18:16;;;;;;;;;3.00;3.00;;;;;;;;5164372;28;8810;-75
2022/08/19 08:20:47;;;;;;;;;3.00;3.00;;;;;;;;5181861;28;8800;-76
2022/08/19 08:23:36;;;;;;;;;2.50;2.50;;;;;;;;5178033;28;8834;-76
2022/08/19 08:26:07;;;;;;;;;1.75;1.75;;;;;;;;5177781;28;8806;-78
2022/08/19 08:28:38;;;;;;;;;4.00;4.00;;;;;;;;5157416;28;8801;-75
2022/08/19 08:31:09;;;;;;;;;5.00;5.00;;;;;;;;5162417;28;8913;-74
2022/08/19 08:33:58;;;;;;;;;5.25;5.25;;;;;;;;5168501;28;8798;-75
2022/08/19 08:36:33;;;;;;;;;2.33;2.33;;;;;;;;5177599;28;8909;-75
2022/08/19 08:39:22;;;;;;;;;8.25;8.25;;;;;;;;5173499;28;11508;-78
2022/08/19 08:42:17;;;;;;;;;5.00;5.00;;;;;;;;5161430;28;8810;-76
2022/08/19 08:44:51;;;;;;;;;7.00;7.00;;;;;;;;5157527;28;8838;-76
2022/08/19 08:47:23;;;;;;;;;45.40;39.20;;;;;;;;5146178;28;8829;-76
2022/08/19 08:50:20;;;;;;;;;10.50;10.50;;;;;;;;5163913;28;9231;-76
2022/08/19 08:52:54;;;;;;;;;5.25;5.25;;;;;;;;5158944;28;8814;-76
2022/08/19 08:55:27;;;;;;;;;4.50;4.50;;;;;;;;5160345;28;8815;-76
2022/08/19 08:58:05;;;;;;;;;4.00;4.00;;;;;;;;5166482;28;8803;-76
2022/08/19 09:00:38;;;;;;;;;2.75;2.75;;;;;;;;5150588;28;8827;-75
2022/08/19 09:03:25;;;;;;;;;5.00;5.00;;;;;;;;5182809;28;8889;-76
2022/08/19 09:06:01;;;;;;;;;4.00;4.00;;;;;;;;5153994;28;8827;-76
2022/08/19 09:09:14;;;;;;;;;0.00;0.00;;;;;;;;5187261;28;8799;-77
2022/08/19 09:11:56;;;;;;;;;2.25;2.25;;;;;;;;5185449;28;9724;-75
2022/08/19 09:14:37;;;;;;;;;3.00;3.00;;;;;;;;5169533;28;8809;-75
2022/08/19 09:17:09;;;;;;;;;2.25;2.25;;;;;;;;5172605;28;8818;-77
2022/08/19 09:20:06;;;;;;;;;3.25;3.25;;;;;;;;5186916;28;9616;-76
2022/08/19 09:22:38;;;;;;;;;2.75;2.75;;;;;;;;5199105;28;8877;-79
2022/08/19 09:25:09;;;;;;;;;5.50;5.50;;;;;;;;5190518;28;8902;-76
2022/08/19 09:27:41;;;;;;;;;4.50;4.50;;;;;;;;5190554;28;8950;-76
2022/08/19 09:30:17;;;;;;;;;5.50;5.25;;;;;;;;5197575;28;8795;-75
2022/08/19 09:32:49;;;;;;;;;4.00;4.00;;;;;;;;5199866;28;8836;-78
2022/08/19 09:35:24;;;;;;;;;5.00;4.75;;;;;;;;5206280;28;8830;-78
2022/08/19 09:37:57;;;;;;;;;6.25;6.25;;;;;;;;5185239;28;9566;-79
2022/08/19 09:40:28;;;;;;;;;7.25;7.25;;;;;;;;5178517;28;8872;-78
2022/08/19 09:43:02;;;;;;;;;4.25;4.25;;;;;;;;5203339;28;8800;-76
2022/08/19 09:45:33;;;;;;;;;6.00;6.00;;;;;;;;5182657;28;8799;-77
2022/08/19 09:48:05;;;;;;;;;4.25;4.25;;;;;;;;5170374;28;8831;-74
2022/08/19 09:50:38;;;;;;;;;5.50;5.50;;;;;;;;5192683;28;8799;-74
2022/08/19 09:53:09;;;;;;;;;6.00;5.75;;;;;;;;5193771;28;8796;-76
2022/08/19 09:55:43;;;;;;;;;73.80;61.20;;;;;;;;5200561;28;8816;-76
2022/08/19 09:58:34;;;;;;;;;5.50;5.50;;;;;;;;5186972;28;8921;-76
2022/08/19 10:01:05;;;;;;;;;4.75;4.75;;;;;;;;5169613;28;8815;-77
2022/08/19 10:03:36;;;;;;;;;2.25;2.25;;;;;;;;5173122;28;8959;-77
2022/08/19 10:06:08;;;;;;;;;5.25;5.25;;;;;;;;5179313;28;8921;-75
2022/08/19 10:08:39;;;;;;;;;24.25;24.25;;;;;;;;5175482;28;8906;-72
2022/08/19 10:11:29;;;;;;;;;7.25;7.25;;;;;;;;5173265;28;8779;-75
2022/08/19 10:14:00;;;;;;;;;5.25;5.25;;;;;;;;5153271;28;8861;-75
2022/08/19 10:16:32;;;;;;;;;4.25;4.25;;;;;;;;5169004;28;8799;-74
2022/08/19 10:19:03;;;;;;;;;2.25;2.25;;;;;;;;5186190;28;8813;-74
2022/08/19 10:21:35;;;;;;;;;4.00;4.00;;;;;;;;5184302;28;8923;-75
2022/08/19 10:24:06;;;;;;;;;6.25;6.25;;;;;;;;5151739;28;8845;-75
2022/08/19 10:26:41;;;;;;;;;8.50;8.50;;;;;;;;5134873;28;8802;-77
2022/08/19 10:29:13;;;;;;;;;4.75;4.75;;;;;;;;5154734;28;8794;-78
2022/08/19 10:31:44;;;;;;;;;4.00;4.00;;;;;;;;5164235;28;8800;-76
2022/08/19 10:34:15;;;;;;;;;3.25;3.25;;;;;;;;5171133;28;8839;-86
2022/08/19 10:36:47;;;;;;;;;3.00;3.00;;;;;;;;5178748;28;8811;-76
2022/08/19 10:39:18;;;;;;;;;2.50;2.50;;;;;;;;5168964;28;8960;-78
2022/08/19 10:41:49;;;;;;;;;3.67;3.67;;;;;;;;5185171;28;8929;-77
2022/08/19 10:44:21;;;;;;;;;2.25;2.25;;;;;;;;5168657;28;11463;-77
2022/08/19 10:46:52;;;;;;;;;2.00;2.00;;;;;;;;5153141;28;9519;-74
2022/08/19 10:49:23;;;;;;;;;2.00;2.00;;;;;;;;5184455;28;8831;-75
2022/08/19 10:57:34;;;;;;;;;3.00;3.00;;;;;;;;5164945;28;8801;-74
2022/08/19 11:00:06;;;;;;;;;3.00;3.00;;;;;;;;5164529;28;9574;-75
2022/08/19 11:02:36;;;;;;;;;1.50;1.50;;;;;;;;5148025;28;8838;-74
2022/08/19 11:05:10;;;;;;;;;2.25;2.25;;;;;;;;5165372;28;8814;-74
2022/08/19 11:07:41;;;;;;;;;1.50;1.50;;;;;;;;5164531;28;8806;-75
2022/08/19 11:10:13;;;;;;;;;2.00;2.00;;;;;;;;5148088;28;8809;-76
2022/08/19 11:12:46;;;;;;;;;0.00;0.00;;;;;;;;5151328;28;8892;-74
2022/08/19 11:15:17;;;;;;;;;0.00;0.00;;;;;;;;5167850;28;8803;-75
2022/08/19 11:17:48;;;;;;;;;2.75;2.75;;;;;;;;5168456;28;8856;-75
2022/08/19 11:20:19;;;;;;;;;2.00;2.00;;;;;;;;5192120;28;8929;-75
2022/08/19 11:22:51;;;;;;;;;1.00;1.00;;;;;;;;5232007;28;8961;-76
2022/08/19 11:25:22;;;;;;;;;3.00;2.75;;;;;;;;5218545;28;8818;-75
2022/08/19 11:27:53;;;;;;;;;5.67;5.67;;;;;;;;5191385;28;8826;-75
2022/08/19 11:30:24;;;;;;;;;25.00;25.00;;;;;;;;5192108;28;11371;-77
2022/08/19 11:32:55;;;;;;;;;6.00;6.00;;;;;;;;5186570;28;11533;-77
2022/08/19 11:35:26;;;;;;;;;3.75;3.75;;;;;;;;5191872;28;11407;-77
2022/08/19 11:38:16;;;;;;;;;6.25;6.25;;;;;;;;5225824;28;8771;-77
2022/08/19 11:40:59;;;;;;;;;3.75;3.75;;;;;;;;5192054;28;8825;-78
2022/08/19 11:43:30;;;;;;;;;3.50;3.50;;;;;;;;5209118;28;8825;-74
2022/08/19 11:46:21;;;;;;;;;3.50;3.50;;;;;;;;5209579;28;9540;-75
2022/08/19 11:48:52;;;;;;;;;2.75;2.75;;;;;;;;5191811;28;8775;-74
2022/08/19 11:51:26;;;;;;;;;5.50;5.50;;;;;;;;5187721;28;8813;-73
2022/08/19 11:53:58;;;;;;;;;2.00;2.00;;;;;;;;5187629;28;8817;-74
2022/08/19 11:56:29;;;;;;;;;8.75;8.75;;;;;;;;5187543;28;9582;-74
2022/08/19 11:59:01;;;;;;;;;4.75;4.75;;;;;;;;5187003;28;8788;-74
2022/08/19 12:01:32;;;;;;;;;3.75;3.75;;;;;;;;5205972;28;8920;-74
2022/08/19 12:04:06;;;;;;;;;3.25;3.25;;;;;;;;5171963;28;9009;-73
2022/08/19 12:06:38;;;;;;;;;5.00;5.00;;;;;;;;5181602;28;8803;-74
2022/08/19 12:09:10;;;;;;;;;2.75;2.75;;;;;;;;5175580;28;8771;-74
2022/08/19 12:11:41;;;;;;;;;6.75;6.75;;;;;;;;5182445;28;8785;-74
2022/08/19 12:14:13;;;;;;;;;3.00;3.00;;;;;;;;5203899;28;9527;-74
2022/08/19 12:16:46;;;;;;;;;4.00;4.00;;;;;;;;5187395;28;8788;-74
2022/08/19 12:19:17;;;;;;;;;2.75;2.75;;;;;;;;5189484;28;8781;-74
2022/08/19 12:21:48;;;;;;;;;2.25;2.25;;;;;;;;5224816;28;8849;-73
2022/08/19 12:24:22;;;;;;;;;5.00;5.00;;;;;;;;5191656;28;8896;-74
2022/08/19 12:26:55;;;;;;;;;9.50;9.50;;;;;;;;5164804;28;8836;-73
2022/08/19 12:29:44;;;;;;;;;4.50;4.50;;;;;;;;5204857;28;8808;-74
2022/08/19 12:32:15;;;;;;;;;2.67;2.67;;;;;;;;5183175;28;9522;-74
2022/08/19 12:34:47;;;;;;;;;3.75;3.75;;;;;;;;5208032;28;8865;-74
2022/08/19 12:37:17;;;;;;;;;3.75;3.75;;;;;;;;5191370;28;8775;-74
2022/08/19 12:40:07;;;;;;;;;19.50;18.75;;;;;;;;5211757;28;8799;-74
2022/08/19 12:42:41;;;;;;;;;3.25;3.25;;;;;;;;5178584;28;8791;-75
2022/08/19 12:45:13;;;;;;;;;4.00;4.00;;;;;;;;5185906;28;8929;-75
2022/08/19 12:48:04;;;;;;;;;4.00;4.00;;;;;;;;5179344;28;8805;-75
2022/08/19 12:50:35;;;;;;;;;2.50;2.50;;;;;;;;5191196;28;9528;-75
2022/08/19 12:53:06;;;;;;;;;2.75;2.75;;;;;;;;5191109;28;8807;-75
2022/08/19 12:55:37;;;;;;;;;2.50;2.50;;;;;;;;5191425;28;8894;-76
2022/08/19 12:58:09;;;;;;;;;2.25;2.25;;;;;;;;5191482;28;8935;-75
2022/08/19 13:00:40;;;;;;;;;4.00;4.00;;;;;;;;5174970;28;8769;-74
2022/08/19 13:03:11;;;;;;;;;5.00;5.00;;;;;;;;5209735;28;8789;-76
2022/08/19 13:05:42;;;;;;;;;2.50;2.50;;;;;;;;5175183;28;8827;-76
2022/08/19 13:08:13;;;;;;;;;0.50;0.50;;;;;;;;5209257;28;8862;-76
2022/08/19 13:10:44;;;;;;;;;0.25;0.25;;;;;;;;5185129;28;8798;-76
2022/08/19 13:13:15;;;;;;;;;3.75;3.75;;;;;;;;5191027;28;8833;-76
2022/08/19 13:15:47;;;;;;;;;1.00;1.00;;;;;;;;5191643;28;8801;-76
2022/08/19 13:18:18;;;;;;;;;25.25;25.25;;;;;;;;5174263;28;8797;-77
2022/08/19 13:20:49;;;;;;;;;15.67;15.67;;;;;;;;5175049;28;8848;-77
2022/08/19 13:23:20;;;;;;;;;13.67;13.67;;;;;;;;5191356;28;11482;-77
2022/08/19 13:26:09;;;;;;;;;3.75;3.75;;;;;;;;5204972;28;10548;-77
2022/08/19 13:34:32;;;;;;;;;3.00;3.00;;;;;;;;5208251;28;8793;-78
2022/08/19 13:37:04;;;;;;;;;1.00;1.00;;;;;;;;5158116;28;8785;-77
2022/08/19 13:39:35;;;;;;;;;2.75;2.75;;;;;;;;5190829;28;8789;-77
2022/08/19 13:42:07;;;;;;;;;0.00;0.00;;;;;;;;5209094;28;8952;-75
2022/08/19 13:44:56;;;;;;;;;2.25;2.25;;;;;;;;5190621;28;8808;-77
2022/08/19 13:47:27;;;;;;;;;1.75;1.75;;;;;;;;5206537;28;8830;-78
2022/08/19 13:49:59;;;;;;;;;2.25;2.25;;;;;;;;5209868;28;8787;-79
2022/08/19 13:52:30;;;;;;;;;58.80;47.80;;;;;;;;5173237;28;8803;-76
2022/08/19 13:55:01;;;;;;;;;11.00;11.00;;;;;;;;5157917;28;8797;-76
2022/08/19 13:57:51;;;;;;;;;1.75;1.75;;;;;;;;5192350;28;8785;-79
2022/08/19 14:00:24;;;;;;;;;3.25;3.25;;;;;;;;5173814;28;8785;-76
2022/08/19 14:02:56;;;;;;;;;2.00;2.00;;;;;;;;5173761;28;8908;-76
2022/08/19 14:05:46;;;;;;;;;2.50;2.50;;;;;;;;5195511;28;8847;-75
2022/08/19 14:08:18;;;;;;;;;1.00;1.00;;;;;;;;5227708;28;9631;-75
2022/08/19 14:11:07;;;;;;;;;2.00;2.00;;;;;;;;5196214;28;8787;-74
2022/08/19 14:13:39;;;;;;;;;7.25;7.25;;;;;;;;5210342;28;8849;-75
2022/08/19 14:16:11;;;;;;;;;3.75;3.00;;;;;;;;5227612;28;8794;-75
2022/08/19 14:18:43;;;;;;;;;1.00;1.00;;;;;;;;5223041;28;8816;-76
2022/08/19 14:21:15;;;;;;;;;2.25;2.25;;;;;;;;5207399;28;9519;-76
2022/08/19 14:23:47;;;;;;;;;1.50;1.50;;;;;;;;5159305;28;9553;-76
2022/08/19 14:26:36;;;;;;;;;1.00;1.00;;;;;;;;5195827;28;8779;-77
2022/08/19 14:29:28;;;;;;;;;4.00;4.00;;;;;;;;5211309;28;8826;-76
2022/08/19 14:31:59;;;;;;;;;7.75;7.75;;;;;;;;5193198;28;9542;-78
2022/08/19 14:34:31;;;;;;;;;5.00;5.00;;;;;;;;5192807;28;8821;-75
2022/08/19 14:37:02;;;;;;;;;6.50;6.50;;;;;;;;5227232;28;8799;-77
2022/08/19 14:39:33;;;;;;;;;7.50;7.50;;;;;;;;5176526;28;8795;-76
2022/08/19 14:42:08;;;;;;;;;7.75;7.75;;;;;;;;5190325;28;8839;-80
2022/08/19 14:44:39;;;;;;;;;2.75;2.75;;;;;;;;5192260;28;8814;-79
2022/08/19 14:47:10;;;;;;;;;8.75;8.75;;;;;;;;5175605;28;9561;-76
2022/08/19 14:49:41;;;;;;;;;5.00;5.00;;;;;;;;5175623;28;8795;-80
2022/08/19 14:52:12;;;;;;;;;1.75;1.75;;;;;;;;5193512;28;8787;-78
2022/08/19 14:55:02;;;;;;;;;3.00;3.00;;;;;;;;5204211;28;8825;-77
2022/08/19 14:57:34;;;;;;;;;5.00;5.00;;;;;;;;5208134;28;8795;-76
2022/08/19 15:00:05;;;;;;;;;3.25;3.25;;;;;;;;5191209;28;8868;-78
2022/08/19 15:02:37;;;;;;;;;3.25;3.25;;;;;;;;5207182;28;8810;-77
2022/08/19 15:05:08;;;;;;;;;5.25;5.25;;;;;;;;5177206;28;8829;-76
2022/08/19 15:07:40;;;;;;;;;3.00;3.00;;;;;;;;5187333;28;8816;-74
2022/08/19 15:10:12;;;;;;;;;1.00;1.00;;;;;;;;5187113;28;8830;-75
2022/08/19 15:12:43;;;;;;;;;3.25;3.25;;;;;;;;5154072;28;8781;-75
2022/08/19 15:15:15;;;;;;;;;2.00;2.00;;;;;;;;5170516;28;8809;-76
2022/08/19 15:17:46;;;;;;;;;4.00;4.00;;;;;;;;5170631;28;8823;-74
2022/08/19 15:20:37;;;;;;;;;4.00;4.00;;;;;;;;5175503;28;8865;-76
2022/08/19 15:23:12;;;;;;;;;2.00;2.00;;;;;;;;5207313;28;9556;-76
2022/08/19 15:25:43;;;;;;;;;1.00;1.00;;;;;;;;5182401;28;8945;-75
2022/08/19 15:28:16;;;;;;;;;5.00;5.00;;;;;;;;5190793;28;8775;-74
2022/08/19 15:30:46;;;;;;;;;5.50;5.50;;;;;;;;5190422;28;8794;-74
2022/08/19 15:33:19;;;;;;;;;8.33;8.00;;;;;;;;5224079;28;8968;-74
2022/08/19 15:36:09;;;;;;;;;14.25;13.50;;;;;;;;5206964;28;10782;-74
2022/08/19 15:38:41;;;;;;;;;13.00;11.25;;;;;;;;5178543;28;8793;-73
2022/08/19 15:41:24;;;;;;;;;6.00;6.00;;;;;;;;5211417;28;8801;-74
2022/08/19 15:44:08;;;;;;;;;8.25;7.50;;;;;;;;5171217;28;8950;-73
2022/08/19 15:46:42;;;;;;;;;7.50;7.50;;;;;;;;5165494;28;8809;-75
2022/08/19 15:49:14;;;;;;;;;5.00;5.00;;;;;;;;5175665;28;8817;-74
2022/08/19 15:51:56;;;;;;;;;10.25;10.25;;;;;;;;5171548;28;8793;-74
2022/08/19 15:54:27;;;;;;;;;17.75;17.50;;;;;;;;5187321;28;8831;-74
2022/08/19 16:08:21;;;;;;;;;20.25;19.75;;;;;;;;5207898;28;9543;-73
2022/08/19 16:10:52;;;;;;;;;21.50;21.00;;;;;;;;5192222;28;8799;-73
2022/08/19 16:13:23;;;;;;;;;22.75;22.50;;;;;;;;5190609;28;8840;-74